Time;durP1;ratioP1;P1;durP2;ratioP2;P2;SDS_P1;SDS_P2;PMS_P1;PMS_P2;Temp;Humidity;BMP_temperature;BMP_pressure;BME280_temperature;BME280_humidity;BME280_pressure;Samples;Min_cycle;Max_cycle;Signal;HPM_P1;HPM_P2
2024/04/16 00:00:50;;;;;;;2.00;0.95;;;8.20;79.70;;;;;;5475885;26;20002;-68
2024/04/16 00:03:16;;;;;;;3.63;1.00;;;8.20;79.60;;;;;;5475859;26;19998;-68
2024/04/16 00:05:42;;;;;;;5.78;1.23;;;8.20;79.50;;;;;;5482160;26;20009;-68
2024/04/16 00:08:08;;;;;;;3.97;0.90;;;8.30;79.40;;;;;;5485558;26;19998;-68
2024/04/16 00:10:34;;;;;;;6.75;1.00;;;8.30;79.30;;;;;;5485304;26;20423;-68
2024/04/16 00:13:00;;;;;;;1.75;0.65;;;8.30;79.30;;;;;;5483073;26;19998;-68
2024/04/16 00:15:26;;;;;;;1.67;1.00;;;8.40;79.10;;;;;;5473382;26;20003;-67
2024/04/16 00:17:52;;;;;;;4.80;0.90;;;8.50;79.00;;;;;;5481086;26;20352;-67
2024/04/16 00:20:18;;;;;;;3.63;1.45;;;8.50;78.90;;;;;;5476591;26;20006;-67
2024/04/16 00:22:43;;;;;;;4.75;1.58;;;8.60;78.80;;;;;;5450063;26;20017;-68
2024/04/16 00:25:10;;;;;;;1.65;0.88;;;8.60;78.70;;;;;;5481404;26;20334;-67
2024/04/16 00:27:36;;;;;;;0.82;0.60;;;8.60;78.60;;;;;;5484492;26;20041;-68
2024/04/16 00:30:03;;;;;;;0.98;0.73;;;8.70;78.40;;;;;;5481147;26;20130;-67
2024/04/16 00:32:29;;;;;;;4.72;1.08;;;8.60;78.40;;;;;;5441668;26;20002;-67
2024/04/16 00:34:55;;;;;;;3.60;0.70;;;8.70;78.30;;;;;;5434204;26;20395;-63
2024/04/16 00:37:21;;;;;;;5.82;1.50;;;8.70;78.80;;;;;;5483185;26;19998;-63
2024/04/16 00:39:47;;;;;;;1.05;0.80;;;8.80;78.10;;;;;;5484978;26;20014;-63
2024/04/16 00:42:13;;;;;;;4.85;0.93;;;8.80;77.90;;;;;;5481044;26;20030;-67
2024/04/16 00:44:39;;;;;;;3.72;0.88;;;8.80;77.70;;;;;;5477408;26;20064;-67
2024/04/16 00:47:08;;;;;;;5.00;0.85;;;8.80;77.70;;;;;;5472441;26;20481;-68
2024/04/16 00:49:35;;;;;;;1.52;0.95;;;8.90;77.50;;;;;;5479859;26;19999;-68
2024/04/16 00:52:02;;;;;;;3.72;1.27;;;8.90;77.50;;;;;;5482339;26;20017;-63
2024/04/16 00:54:28;;;;;;;0.47;0.38;;;8.90;77.20;;;;;;5477512;26;20002;-63
2024/04/16 00:56:56;;;;;;;6.82;1.17;;;8.90;76.90;;;;;;5470606;26;20342;-63
2024/04/16 00:59:26;;;;;;;1.40;0.47;;;9.00;77.10;;;;;;5476509;26;20010;-63
2024/04/16 01:01:55;;;;;;;2.25;0.90;;;9.00;77.00;;;;;;5476599;26;20019;-63
2024/04/16 01:04:22;;;;;;;2.28;1.05;;;9.00;76.90;;;;;;5481231;26;20012;-63
2024/04/16 01:06:51;;;;;;;4.47;0.80;;;9.00;76.80;;;;;;5483995;26;19998;-63
2024/04/16 01:09:19;;;;;;;1.27;0.77;;;9.00;76.20;;;;;;5470339;26;20017;-64
2024/04/16 01:11:48;;;;;;;2.90;0.65;;;9.00;76.00;;;;;;5475449;26;20652;-63
2024/04/16 01:14:15;;;;;;;3.78;1.17;;;9.00;76.00;;;;;;5452863;26;19998;-63
2024/04/16 01:16:41;;;;;;;1.90;0.80;;;9.00;76.00;;;;;;5483232;26;20455;-62
2024/04/16 01:19:08;;;;;;;1.42;0.70;;;9.00;76.20;;;;;;5480745;26;20185;-63
2024/04/16 01:21:34;;;;;;;1.20;0.77;;;9.00;76.20;;;;;;5473467;26;20009;-62
2024/04/16 01:24:00;;;;;;;3.17;1.25;;;9.00;76.20;;;;;;5481903;26;20125;-63
2024/04/16 01:26:26;;;;;;;4.40;0.63;;;9.00;76.00;;;;;;5466357;26;20469;-63
2024/04/16 01:28:52;;;;;;;4.10;1.23;;;9.00;76.10;;;;;;5478814;26;20002;-63
2024/04/16 01:31:18;;;;;;;6.07;0.80;;;8.90;76.20;;;;;;5476592;26;20043;-63
2024/04/16 01:33:44;;;;;;;3.70;0.70;;;8.90;76.10;;;;;;5474151;26;20017;-67
2024/04/16 01:36:11;;;;;;;2.80;0.73;;;8.90;76.20;;;;;;5474109;26;20021;-67
2024/04/16 01:38:37;;;;;;;1.95;0.50;;;8.90;76.20;;;;;;5474831;26;19994;-67
2024/04/16 01:41:03;;;;;;;1.33;0.60;;;8.90;76.40;;;;;;5480586;26;19998;-67
2024/04/16 01:43:29;;;;;;;1.40;0.63;;;8.90;76.40;;;;;;5472498;26;20009;-67
2024/04/16 01:45:55;;;;;;;1.48;0.45;;;8.90;76.50;;;;;;5480824;26;19998;-63
2024/04/16 01:48:21;;;;;;;1.88;0.50;;;8.90;76.50;;;;;;5478982;26;20525;-63
2024/04/16 01:50:47;;;;;;;2.97;0.82;;;8.90;76.60;;;;;;5479996;26;20059;-67
2024/04/16 01:53:13;;;;;;;0.90;0.40;;;8.80;76.60;;;;;;5479842;26;19998;-67
2024/04/16 01:55:39;;;;;;;5.28;0.73;;;8.80;76.80;;;;;;5467502;26;20002;-67
2024/04/16 01:58:06;;;;;;;1.95;0.50;;;8.80;77.00;;;;;;5482612;26;20002;-68
2024/04/16 02:00:32;;;;;;;5.10;1.13;;;8.80;77.00;;;;;;5481972;26;20002;-67
2024/04/16 02:03:01;;;;;;;1.77;0.40;;;8.80;77.00;;;;;;5476631;26;20473;-67
2024/04/16 02:05:26;;;;;;;2.22;0.63;;;8.80;77.00;;;;;;5470655;26;19998;-67
2024/04/16 02:07:52;;;;;;;3.42;0.30;;;8.80;77.00;;;;;;5482932;26;20017;-68
2024/04/16 02:10:18;;;;;;;0.35;0.35;;;8.80;76.80;;;;;;5481756;26;20002;-67
2024/04/16 02:12:44;;;;;;;0.82;0.40;;;8.80;76.70;;;;;;5477002;26;20016;-67
2024/04/16 02:15:10;;;;;;;1.95;0.45;;;8.80;76.50;;;;;;5478435;26;20002;-67
2024/04/16 02:17:37;;;;;;;0.20;0.20;;;8.80;76.50;;;;;;5480987;26;20002;-68
2024/04/16 02:20:04;;;;;;;0.57;0.50;;;8.70;76.60;;;;;;5478859;26;20039;-68
2024/04/16 02:22:30;;;;;;;2.10;0.57;;;8.70;76.70;;;;;;5483152;26;20022;-63
2024/04/16 02:24:56;;;;;;;3.30;0.88;;;8.70;76.80;;;;;;5478099;26;20002;-63
2024/04/16 02:27:22;;;;;;;0.40;0.40;;;8.70;76.90;;;;;;5481176;26;20009;-63
2024/04/16 02:29:48;;;;;;;3.08;0.75;;;8.70;76.90;;;;;;5481126;26;20033;-63
2024/04/16 02:32:14;;;;;;;5.38;0.65;;;8.70;77.00;;;;;;5479500;26;20424;-63
2024/04/16 02:34:40;;;;;;;1.55;0.38;;;8.70;77.20;;;;;;5480416;26;20010;-63
2024/04/16 02:37:06;;;;;;;1.08;0.90;;;8.70;77.30;;;;;;5477922;26;19994;-64
2024/04/16 02:39:32;;;;;;;3.60;0.70;;;8.80;77.80;;;;;;5471565;26;19998;-63
2024/04/16 02:41:58;;;;;;;2.42;0.63;;;8.70;78.30;;;;;;5480671;26;19994;-63
2024/04/16 02:44:24;;;;;;;3.47;0.43;;;8.60;78.70;;;;;;5479455;26;20372;-67
2024/04/16 02:46:50;;;;;;;0.20;0.20;;;8.50;79.10;;;;;;5475326;26;19994;-68
2024/04/16 02:49:16;;;;;;;0.32;0.15;;;8.40;79.10;;;;;;5481411;26;20308;-67
2024/04/16 02:51:42;;;;;;;0.30;0.20;;;8.40;79.20;;;;;;5473465;26;20072;-63
2024/04/16 02:54:08;;;;;;;0.20;0.20;;;8.30;79.10;;;;;;5478864;26;19994;-64
2024/04/16 02:56:34;;;;;;;0.10;0.10;;;8.30;79.10;;;;;;5473825;26;20002;-63
2024/04/16 02:59:00;;;;;;;0.10;0.10;;;8.20;79.20;;;;;;5453796;26;19995;-63
2024/04/16 03:01:26;;;;;;;0.22;0.10;;;8.10;79.40;;;;;;5470441;26;21865;-63
2024/04/16 03:03:56;;;;;;;0.10;0.10;;;8.00;79.60;;;;;;5479426;26;19994;-63
2024/04/16 03:06:22;;;;;;;0.10;0.10;;;8.00;79.80;;;;;;5483284;26;19998;-63
2024/04/16 03:08:51;;;;;;;0.28;0.20;;;7.90;79.90;;;;;;5483691;26;20009;-63
2024/04/16 03:11:17;;;;;;;0.30;0.30;;;7.90;80.00;;;;;;5467207;26;20014;-63
2024/04/16 03:13:45;;;;;;;0.10;0.10;;;7.80;79.90;;;;;;5485002;26;20006;-63
2024/04/16 03:16:11;;;;;;;0.25;0.25;;;7.80;80.00;;;;;;5485424;26;20050;-67
2024/04/16 03:18:37;;;;;;;0.10;0.10;;;7.80;80.20;;;;;;5486400;26;20253;-67
2024/04/16 03:21:03;;;;;;;0.70;0.40;;;7.80;80.20;;;;;;5484589;26;20012;-63
2024/04/16 03:23:29;;;;;;;0.00;0.00;;;7.70;80.10;;;;;;5466654;26;19999;-63
2024/04/16 03:25:55;;;;;;;3.40;0.40;;;7.70;80.10;;;;;;5491080;25;20006;-63
2024/04/16 03:28:21;;;;;;;0.22;0.22;;;7.70;80.20;;;;;;5478068;26;20457;-63
2024/04/16 03:30:47;;;;;;;1.65;0.80;;;7.70;80.30;;;;;;5483275;26;20013;-63
2024/04/16 03:33:13;;;;;;;0.28;0.20;;;7.70;80.50;;;;;;5482898;26;19998;-63
2024/04/16 03:35:39;;;;;;;0.28;0.10;;;7.70;80.50;;;;;;5483913;26;20035;-67
2024/04/16 03:38:05;;;;;;;10.35;1.00;;;7.70;80.60;;;;;;5468948;26;20002;-67
2024/04/16 03:40:31;;;;;;;0.20;0.20;;;7.70;80.80;;;;;;5473240;26;19994;-67
2024/04/16 03:42:57;;;;;;;0.10;0.10;;;7.60;81.00;;;;;;5477890;26;20081;-67
2024/04/16 03:45:23;;;;;;;0.10;0.10;;;7.70;81.30;;;;;;5479540;26;19990;-67
2024/04/16 03:47:49;;;;;;;5.95;0.68;;;7.70;81.30;;;;;;5473074;26;20012;-67
2024/04/16 03:50:15;;;;;;;0.10;0.10;;;7.70;81.40;;;;;;5469909;26;20122;-67
2024/04/16 03:52:41;;;;;;;0.10;0.10;;;7.70;81.40;;;;;;5482881;26;20009;-67
2024/04/16 03:55:07;;;;;;;0.10;0.10;;;7.70;81.40;;;;;;5462285;26;20741;-67
2024/04/16 03:57:33;;;;;;;1.55;0.65;;;7.70;81.50;;;;;;5472573;26;20486;-67
2024/04/16 04:02:43;;;;;;;0.40;0.25;;;7.80;81.70;;;;;;5484102;26;20413;-64
2024/04/16 04:05:09;;;;;;;0.45;0.22;;;7.80;81.80;;;;;;5483729;26;20447;-64
2024/04/16 04:07:35;;;;;;;1.23;0.30;;;7.80;81.80;;;;;;5482428;26;20017;-64
2024/04/16 04:10:01;;;;;;;3.10;0.35;;;7.80;81.70;;;;;;5482430;26;20433;-63
2024/04/16 04:12:27;;;;;;;1.13;0.68;;;7.90;82.00;;;;;;5484092;26;20013;-63
2024/04/16 04:14:53;;;;;;;0.52;0.40;;;7.90;82.30;;;;;;5483486;26;20022;-64
2024/04/16 04:17:19;;;;;;;0.60;0.60;;;7.80;82.30;;;;;;5471406;26;20017;-64
2024/04/16 04:19:45;;;;;;;2.20;0.20;;;7.80;82.20;;;;;;5474837;26;20034;-64
2024/04/16 04:22:11;;;;;;;0.20;0.20;;;7.80;82.40;;;;;;5476098;26;20010;-64
2024/04/16 04:24:37;;;;;;;1.17;0.50;;;7.80;82.50;;;;;;5476219;26;20942;-63
2024/04/16 04:27:03;;;;;;;0.80;0.40;;;7.80;82.70;;;;;;5467130;26;20012;-64
2024/04/16 04:29:30;;;;;;;0.30;0.30;;;7.90;82.90;;;;;;5445965;26;19998;-63
2024/04/16 04:31:56;;;;;;;0.32;0.10;;;7.90;82.80;;;;;;5480847;26;20513;-63
2024/04/16 04:34:22;;;;;;;0.88;0.30;;;7.90;82.80;;;;;;5482886;26;20002;-63
2024/04/16 04:36:48;;;;;;;2.28;0.47;;;8.00;82.70;;;;;;5477268;26;20013;-63
2024/04/16 04:39:14;;;;;;;0.75;0.20;;;8.00;82.70;;;;;;5443099;26;20016;-64
2024/04/16 04:41:40;;;;;;;0.80;0.52;;;8.00;82.60;;;;;;5482794;26;20002;-67
2024/04/16 04:44:06;;;;;;;0.10;0.10;;;8.00;82.60;;;;;;5481940;26;20013;-64
2024/04/16 04:46:31;;;;;;;2.40;0.52;;;8.10;82.50;;;;;;5485967;26;20448;-64
2024/04/16 04:48:57;;;;;;;1.40;0.52;;;8.10;82.40;;;;;;5483389;26;20467;-67
2024/04/16 04:51:24;;;;;;;1.30;0.35;;;8.10;82.30;;;;;;5488856;26;20373;-67
2024/04/16 04:53:49;;;;;;;0.30;0.30;;;8.10;82.30;;;;;;5495024;26;20702;-67
2024/04/16 04:56:15;;;;;;;0.70;0.50;;;8.10;82.40;;;;;;5437575;26;20070;-67
2024/04/16 04:58:41;;;;;;;0.40;0.20;;;8.10;82.50;;;;;;5496959;26;20073;-68
2024/04/16 05:01:07;;;;;;;1.58;0.55;;;8.10;82.40;;;;;;5478358;26;20053;-65
2024/04/16 05:03:32;;;;;;;0.60;0.47;;;8.10;82.60;;;;;;5473467;26;20002;-66
2024/04/16 05:05:58;;;;;;;2.75;0.60;;;8.10;82.90;;;;;;5475424;26;20055;-65
2024/04/16 05:08:28;;;;;;;2.30;0.30;;;8.10;83.00;;;;;;5469935;26;20079;-68
2024/04/16 05:10:53;;;;;;;0.55;0.55;;;8.10;83.10;;;;;;5471861;26;20052;-65
2024/04/16 05:13:19;;;;;;;2.20;0.70;;;8.10;83.40;;;;;;5478325;26;20013;-63
2024/04/16 05:15:45;;;;;;;1.17;0.50;;;8.00;83.90;;;;;;5447629;26;20440;-63
2024/04/16 05:18:12;;;;;;;2.75;0.70;;;8.00;83.90;;;;;;5466756;26;20009;-67
2024/04/16 05:20:37;;;;;;;1.00;0.80;;;8.00;84.20;;;;;;5466875;26;20016;-68
2024/04/16 05:23:03;;;;;;;1.30;0.68;;;8.00;84.50;;;;;;5464585;26;20002;-67
2024/04/16 05:25:29;;;;;;;0.88;0.40;;;8.00;85.20;;;;;;5471154;26;20554;-68
2024/04/16 05:27:54;;;;;;;0.40;0.40;;;7.90;85.30;;;;;;5484127;26;19998;-68
2024/04/16 05:30:20;;;;;;;2.05;0.20;;;7.80;85.20;;;;;;5482116;26;20002;-68
2024/04/16 05:32:47;;;;;;;1.75;0.70;;;7.80;85.00;;;;;;5484033;26;20044;-67
2024/04/16 05:35:13;;;;;;;0.30;0.30;;;7.70;85.00;;;;;;5481185;26;20006;-68
2024/04/16 05:37:39;;;;;;;0.20;0.20;;;7.70;84.90;;;;;;5482931;26;20353;-67
2024/04/16 05:40:05;;;;;;;0.95;0.65;;;7.70;84.90;;;;;;5482651;26;20010;-67
2024/04/16 05:42:31;;;;;;;0.35;0.20;;;7.70;85.00;;;;;;5480194;26;20012;-67
2024/04/16 05:44:56;;;;;;;0.30;0.20;;;7.70;85.00;;;;;;5483389;26;20074;-67
2024/04/16 05:47:22;;;;;;;0.38;0.30;;;7.70;85.00;;;;;;5483585;26;19998;-67
2024/04/16 05:49:48;;;;;;;0.90;0.47;;;7.70;85.10;;;;;;5449888;26;20046;-67
2024/04/16 05:52:13;;;;;;;0.20;0.20;;;7.70;85.30;;;;;;5476947;26;20007;-67
2024/04/16 05:54:39;;;;;;;0.20;0.20;;;7.70;85.40;;;;;;5476289;26;19998;-68
2024/04/16 05:57:05;;;;;;;0.73;0.20;;;7.70;85.60;;;;;;5474352;26;20070;-68
2024/04/16 05:59:31;;;;;;;1.42;0.68;;;7.70;86.00;;;;;;5479846;26;20510;-67
2024/04/16 06:01:57;;;;;;;0.32;0.32;;;7.70;86.10;;;;;;5477093;26;19998;-67
2024/04/16 06:04:23;;;;;;;0.40;0.35;;;7.70;86.30;;;;;;5480590;26;20029;-68
2024/04/16 06:06:48;;;;;;;0.40;0.40;;;7.80;86.50;;;;;;5477854;26;20452;-68
2024/04/16 06:09:14;;;;;;;0.43;0.30;;;7.80;86.50;;;;;;5477690;26;20018;-64
2024/04/16 06:11:40;;;;;;;0.35;0.35;;;7.90;86.40;;;;;;5473385;26;20017;-67
2024/04/16 06:14:06;;;;;;;0.40;0.40;;;7.90;86.60;;;;;;5475480;26;20598;-68
2024/04/16 06:16:32;;;;;;;2.83;0.50;;;8.00;86.80;;;;;;5475365;26;19995;-67
2024/04/16 06:18:57;;;;;;;0.55;0.55;;;8.00;87.20;;;;;;5481015;26;20441;-68
2024/04/16 06:21:23;;;;;;;0.20;0.20;;;8.00;87.10;;;;;;5483348;26;20014;-68
2024/04/16 06:23:49;;;;;;;0.38;0.32;;;8.10;87.00;;;;;;5448643;26;20010;-68
2024/04/16 06:26:15;;;;;;;1.63;0.28;;;8.10;86.90;;;;;;5483276;26;19998;-68
2024/04/16 06:28:41;;;;;;;3.25;0.60;;;8.20;87.30;;;;;;5478982;26;20009;-65
2024/04/16 06:31:06;;;;;;;1.13;0.57;;;8.20;87.60;;;;;;5415517;26;20007;-65
2024/04/16 06:33:36;;;;;;;1.73;0.40;;;8.30;87.50;;;;;;5480375;26;19998;-65
2024/04/16 06:36:03;;;;;;;0.52;0.43;;;8.40;87.40;;;;;;5488279;26;20009;-64
2024/04/16 06:38:30;;;;;;;0.40;0.30;;;8.50;87.50;;;;;;5491254;26;19998;-64
2024/04/16 06:40:55;;;;;;;3.63;1.00;;;8.60;87.40;;;;;;5487074;26;20465;-64
2024/04/16 06:43:21;;;;;;;0.73;0.47;;;8.60;87.70;;;;;;5490902;26;20013;-64
2024/04/16 06:45:47;;;;;;;0.88;0.38;;;8.80;88.00;;;;;;5452630;26;20006;-65
2024/04/16 06:48:12;;;;;;;2.78;0.65;;;8.90;87.90;;;;;;5482125;26;20073;-64
2024/04/16 06:50:44;;;;;;;0.45;0.45;;;9.00;87.70;;;;;;5478372;26;20016;-64
2024/04/16 06:53:09;;;;;;;2.47;0.73;;;9.10;87.50;;;;;;5480738;26;20002;-67
2024/04/16 06:55:35;;;;;;;0.30;0.30;;;9.20;87.50;;;;;;5483951;26;20349;-68
2024/04/16 06:58:00;;;;;;;2.72;1.08;;;9.30;87.50;;;;;;5474052;26;20048;-65
2024/04/16 07:00:26;;;;;;;0.57;0.57;;;9.40;87.50;;;;;;5485877;26;20385;-67
2024/04/16 07:02:52;;;;;;;1.90;0.55;;;9.50;87.50;;;;;;5488009;26;20041;-67
2024/04/16 07:05:18;;;;;;;2.35;1.00;;;9.60;87.20;;;;;;5486077;26;20002;-65
2024/04/16 07:07:43;;;;;;;0.50;0.40;;;9.80;87.30;;;;;;5482600;26;19999;-66
2024/04/16 07:10:09;;;;;;;1.60;0.60;;;9.90;87.10;;;;;;5490231;26;20337;-68
2024/04/16 07:12:34;;;;;;;1.08;0.50;;;10.00;86.90;;;;;;5488365;26;20002;-66
2024/04/16 07:15:00;;;;;;;0.65;0.30;;;10.00;86.70;;;;;;5481396;26;20009;-67
2024/04/16 07:17:26;;;;;;;0.50;0.45;;;10.00;86.60;;;;;;5507130;26;20002;-65
2024/04/16 07:19:51;;;;;;;1.70;0.60;;;10.00;86.50;;;;;;5454334;26;20008;-65
2024/04/16 07:22:17;;;;;;;5.30;0.98;;;10.10;86.50;;;;;;5476956;26;20428;-65
2024/04/16 07:24:43;;;;;;;1.15;0.75;;;10.10;86.50;;;;;;5449160;26;20007;-68
2024/04/16 07:27:09;;;;;;;3.38;1.35;;;10.10;86.50;;;;;;5488204;26;20017;-68
2024/04/16 07:29:34;;;;;;;5.75;0.90;;;10.10;86.30;;;;;;5494260;26;19994;-68
2024/04/16 07:32:00;;;;;;;2.95;1.58;;;10.20;86.30;;;;;;5492735;26;20013;-69
2024/04/16 07:34:26;;;;;;;1.58;0.70;;;10.10;86.20;;;;;;5479717;26;19998;-68
2024/04/16 07:36:52;;;;;;;3.60;1.77;;;10.10;86.30;;;;;;5478092;26;20074;-68
2024/04/16 07:39:18;;;;;;;4.32;1.20;;;10.10;86.50;;;;;;5483140;26;20006;-68
2024/04/16 07:41:45;;;;;;;3.38;1.60;;;10.00;86.70;;;;;;5475801;26;19999;-68
2024/04/16 07:44:10;;;;;;;0.93;0.75;;;10.00;86.70;;;;;;5484359;26;20017;-68
2024/04/16 07:46:36;;;;;;;1.13;0.68;;;10.00;86.70;;;;;;5472342;26;20002;-68
2024/04/16 07:49:02;;;;;;;2.85;0.77;;;10.00;86.90;;;;;;5485789;26;20005;-69
2024/04/16 07:51:27;;;;;;;1.90;0.80;;;10.10;86.90;;;;;;5504882;26;20006;-68
2024/04/16 07:53:53;;;;;;;15.10;1.42;;;10.10;87.10;;;;;;5481173;26;19998;-68
2024/04/16 07:56:18;;;;;;;3.03;0.70;;;10.30;87.10;;;;;;5481868;26;19994;-68
2024/04/16 07:58:44;;;;;;;6.05;1.10;;;10.40;87.10;;;;;;5473263;26;20423;-68
2024/04/16 08:01:10;;;;;;;7.32;0.98;;;10.60;86.60;;;;;;5465728;26;19998;-68
2024/04/16 08:03:35;;;;;;;1.80;0.60;;;10.70;86.20;;;;;;5469762;26;20009;-68
2024/04/16 08:06:01;;;;;;;2.25;0.93;;;10.80;86.00;;;;;;5491901;26;19998;-68
2024/04/16 08:08:27;;;;;;;5.22;0.85;;;10.80;85.70;;;;;;5483994;26;20039;-68
2024/04/16 08:10:52;;;;;;;4.43;1.98;;;10.90;85.70;;;;;;5492017;26;20334;-69
2024/04/16 08:13:18;;;;;;;1.17;0.93;;;11.00;85.60;;;;;;5484296;25;20067;-68
2024/04/16 08:15:44;;;;;;;2.70;0.60;;;11.00;85.40;;;;;;5476925;26;20357;-68
2024/04/16 08:18:10;;;;;;;2.25;0.70;;;10.90;85.00;;;;;;5477819;26;20014;-68
2024/04/16 08:20:36;;;;;;;1.55;0.70;;;10.90;85.10;;;;;;5496363;26;19997;-65
2024/04/16 08:23:02;;;;;;;3.90;0.82;;;11.00;85.20;;;;;;5451578;26;20044;-65
2024/04/16 08:25:27;;;;;;;2.60;0.80;;;11.20;85.20;;;;;;5490121;25;19997;-64
2024/04/16 08:27:53;;;;;;;0.88;0.73;;;11.30;84.60;;;;;;5481019;26;20002;-69
2024/04/16 08:30:19;;;;;;;1.27;0.88;;;11.40;84.20;;;;;;5492795;26;20005;-65
2024/04/16 08:32:45;;;;;;;3.50;0.68;;;11.50;84.20;;;;;;5492639;26;20008;-64
2024/04/16 08:35:22;;;;;;;0.68;0.50;;;11.50;83.50;;;;;;5495968;26;20010;-69
2024/04/16 08:37:47;;;;;;;2.45;1.13;;;11.60;83.50;;;;;;5475575;26;20082;-69
2024/04/16 08:40:14;;;;;;;2.60;0.50;;;11.60;83.10;;;;;;5480414;26;20022;-69
2024/04/16 08:42:41;;;;;;;2.17;0.65;;;11.60;83.10;;;;;;5478895;26;20016;-69
2024/04/16 08:45:08;;;;;;;1.45;0.47;;;11.60;82.60;;;;;;5487035;26;19995;-69
2024/04/16 08:47:35;;;;;;;1.65;0.55;;;11.60;82.40;;;;;;5474657;26;20480;-69
2024/04/16 08:50:03;;;;;;;1.17;0.95;;;11.40;82.20;;;;;;5488252;25;19998;-69
2024/04/16 08:52:32;;;;;;;2.13;0.35;;;11.40;82.30;;;;;;5476086;26;20012;-69
2024/04/16 08:54:59;;;;;;;1.10;0.25;;;11.40;82.50;;;;;;5495967;25;20453;-69
2024/04/16 08:57:27;;;;;;;0.88;0.40;;;11.40;82.10;;;;;;5496961;26;20066;-68
2024/04/16 08:59:53;;;;;;;1.65;0.47;;;11.40;82.00;;;;;;5494258;25;19998;-69
2024/04/16 09:02:19;;;;;;;4.45;0.32;;;11.30;82.00;;;;;;5486069;26;20095;-69
2024/04/16 09:04:47;;;;;;;0.68;0.50;;;11.40;82.20;;;;;;5494066;26;20061;-65
2024/04/16 09:07:14;;;;;;;0.43;0.43;;;11.50;82.40;;;;;;5480322;26;19998;-65
2024/04/16 09:09:39;;;;;;;0.10;0.10;;;11.70;81.60;;;;;;5482364;26;20076;-69
2024/04/16 09:12:05;;;;;;;0.40;0.22;;;11.90;81.30;;;;;;5463818;26;20005;-69
2024/04/16 09:14:31;;;;;;;2.15;0.70;;;12.00;81.00;;;;;;5486827;26;20013;-70
2024/04/16 09:16:57;;;;;;;1.38;0.30;;;12.00;80.60;;;;;;5471768;26;20033;-70
2024/04/16 09:19:26;;;;;;;0.47;0.17;;;12.00;80.90;;;;;;5476708;26;20011;-70
2024/04/16 09:22:01;;;;;;;1.60;0.30;;;12.00;81.60;;;;;;5476787;26;19999;-69
2024/04/16 09:24:27;;;;;;;0.32;0.30;;;12.10;82.00;;;;;;5472285;26;20002;-64
2024/04/16 09:26:53;;;;;;;1.63;0.47;;;12.20;82.00;;;;;;5446561;26;19999;-65
2024/04/16 09:29:25;;;;;;;0.30;0.30;;;12.50;81.90;;;;;;5484055;26;20005;-70
2024/04/16 09:32:00;;;;;;;;;;;12.60;80.90;;;;;;5473636;26;20390;-69
2024/04/16 09:34:26;;;;;;;0.38;0.38;;;12.60;81.10;;;;;;5480983;26;20016;-69
2024/04/16 09:36:52;;;;;;;1.42;0.65;;;12.70;80.60;;;;;;5497766;26;20001;-64
2024/04/16 09:39:23;;;;;;;1.13;0.30;;;12.80;80.00;;;;;;5488030;26;20006;-65
2024/04/16 09:41:49;;;;;;;1.50;0.50;;;12.80;79.80;;;;;;5473490;26;20034;-65
2024/04/16 09:44:15;;;;;;;1.00;0.30;;;12.80;79.80;;;;;;5474500;26;20002;-65
2024/04/16 09:46:44;;;;;;;0.77;0.43;;;12.80;79.90;;;;;;5493913;26;20009;-64
2024/04/16 09:49:10;;;;;;;2.92;0.47;;;12.90;79.80;;;;;;5464898;26;20776;-65
2024/04/16 09:51:39;;;;;;;1.27;0.40;;;13.00;79.60;;;;;;5498104;26;20397;-65
2024/04/16 09:54:09;;;;;;;0.75;0.20;;;12.90;79.00;;;;;;5476597;26;20014;-65
2024/04/16 09:56:37;;;;;;;0.30;0.30;;;12.70;80.00;;;;;;5464562;26;20009;-65
2024/04/16 09:59:05;;;;;;;6.70;0.40;;;12.60;79.70;;;;;;5470107;26;20006;-65
2024/04/16 10:01:35;;;;;;;7.47;0.95;;;12.30;80.00;;;;;;5477636;26;20329;-64
2024/04/16 10:04:01;;;;;;;1.52;0.30;;;12.20;81.00;;;;;;5497149;26;20012;-65
2024/04/16 10:06:27;;;;;;;0.43;0.30;;;12.30;81.30;;;;;;5483538;26;20002;-69
2024/04/16 10:08:55;;;;;;;0.57;0.40;;;12.30;80.80;;;;;;5489392;26;20082;-69
2024/04/16 10:11:21;;;;;;;0.80;0.50;;;12.30;80.70;;;;;;5472496;26;20051;-64
2024/04/16 10:13:47;;;;;;;0.68;0.30;;;12.40;80.90;;;;;;5472049;26;21287;-65
2024/04/16 10:16:15;;;;;;;0.90;0.30;;;12.60;80.90;;;;;;5469936;26;20002;-64
2024/04/16 10:18:42;;;;;;;0.32;0.30;;;12.70;80.70;;;;;;5485715;25;19997;-64
2024/04/16 10:21:10;;;;;;;1.05;0.13;;;12.90;80.00;;;;;;5488540;26;20001;-64
2024/04/16 10:23:38;;;;;;;5.28;0.32;;;13.10;79.60;;;;;;5476787;25;20026;-64
2024/04/16 10:26:05;;;;;;;2.17;0.30;;;13.20;79.00;;;;;;5491620;26;20002;-62
2024/04/16 10:28:33;;;;;;;0.40;0.40;;;13.50;78.60;;;;;;5482143;26;20001;-62
2024/04/16 10:31:08;;;;;;;2.85;1.10;;;13.70;77.80;;;;;;5474749;26;20006;-63
2024/04/16 10:33:39;;;;;;;0.40;0.40;;;13.80;77.00;;;;;;5478780;26;20046;-64
2024/04/16 10:36:07;;;;;;;0.82;0.30;;;13.90;77.00;;;;;;5475749;26;19997;-63
2024/04/16 10:38:34;;;;;;;0.40;0.20;;;14.00;76.10;;;;;;5481600;26;20030;-64
2024/04/16 10:41:00;;;;;;;0.75;0.28;;;14.20;76.30;;;;;;5477984;26;20002;-64
2024/04/16 10:43:27;;;;;;;0.80;0.22;;;14.40;75.50;;;;;;5472717;26;19999;-63
2024/04/16 10:45:54;;;;;;;0.82;0.60;;;14.50;74.90;;;;;;5444619;26;20026;-63
2024/04/16 10:48:21;;;;;;;0.30;0.30;;;14.70;74.80;;;;;;5475438;26;19998;-64
2024/04/16 10:50:47;;;;;;;0.20;0.20;;;14.90;74.30;;;;;;5471315;26;20016;-64
2024/04/16 10:53:14;;;;;;;2.28;0.50;;;14.90;72.20;;;;;;5477384;26;20005;-64
2024/04/16 10:55:43;;;;;;;0.25;0.20;;;14.80;71.60;;;;;;5478605;26;20010;-63
2024/04/16 10:58:14;;;;;;;1.30;0.40;;;14.50;72.00;;;;;;5479850;26;20014;-63
2024/04/16 11:00:41;;;;;;;0.40;0.22;;;14.30;72.20;;;;;;5471723;26;19998;-63
2024/04/16 11:03:09;;;;;;;11.70;0.75;;;14.10;72.90;;;;;;5479175;26;20357;-64
2024/04/16 11:05:39;;;;;;;1.60;0.20;;;14.20;73.70;;;;;;5475664;26;20002;-63
2024/04/16 11:08:07;;;;;;;0.25;0.10;;;14.10;72.70;;;;;;5474827;26;20010;-63
2024/04/16 11:10:34;;;;;;;0.30;0.20;;;13.90;72.80;;;;;;5475335;26;20345;-68
2024/04/16 11:13:01;;;;;;;2.30;0.73;;;13.90;72.90;;;;;;5463826;26;20023;-63
2024/04/16 11:15:33;;;;;;;0.40;0.40;;;14.00;72.00;;;;;;5481738;26;19999;-68
2024/04/16 11:17:58;;;;;;;0.57;0.28;;;14.30;71.50;;;;;;5482176;26;19998;-68
2024/04/16 11:20:25;;;;;;;0.47;0.20;;;14.50;70.40;;;;;;5452923;26;20002;-63
2024/04/16 11:22:51;;;;;;;0.43;0.30;;;14.80;70.70;;;;;;5469302;26;19998;-63
2024/04/16 11:25:17;;;;;;;1.05;0.13;;;15.10;69.30;;;;;;5483439;26;20016;-63
2024/04/16 11:27:43;;;;;;;0.32;0.32;;;15.30;68.50;;;;;;5481426;26;20550;-64
2024/04/16 11:30:12;;;;;;;1.20;0.50;;;15.50;67.10;;;;;;5476289;26;19994;-63
2024/04/16 11:32:39;;;;;;;4.05;0.20;;;15.60;67.60;;;;;;5481935;26;20002;-69
2024/04/16 11:35:11;;;;;;;0.57;0.45;;;15.70;66.90;;;;;;5484389;26;20481;-69
2024/04/16 11:37:38;;;;;;;0.10;0.10;;;15.70;67.30;;;;;;5483759;26;19994;-69
2024/04/16 11:40:07;;;;;;;0.10;0.10;;;15.70;67.50;;;;;;5477521;26;20002;-68
2024/04/16 11:42:35;;;;;;;0.38;0.30;;;15.60;67.70;;;;;;5484381;26;20010;-67
2024/04/16 11:45:01;;;;;;;0.17;0.13;;;15.70;67.90;;;;;;5485081;26;20002;-67
2024/04/16 11:47:26;;;;;;;0.20;0.20;;;15.60;65.50;;;;;;5483032;26;20480;-64
2024/04/16 11:49:52;;;;;;;0.20;0.20;;;15.40;65.90;;;;;;5470901;26;20006;-64
2024/04/16 11:52:18;;;;;;;0.20;0.20;;;15.30;65.80;;;;;;5473694;26;20403;-64
2024/04/16 11:54:46;;;;;;;0.55;0.20;;;15.20;66.80;;;;;;5477511;26;20011;-65
2024/04/16 11:57:12;;;;;;;0.10;0.10;;;15.10;65.60;;;;;;5479912;26;20013;-64
2024/04/16 11:59:38;;;;;;;0.10;0.10;;;15.10;66.30;;;;;;5481332;26;20006;-65
2024/04/16 12:02:04;;;;;;;0.20;0.20;;;15.00;64.20;;;;;;5488920;26;20430;-65
2024/04/16 12:04:30;;;;;;;0.40;0.30;;;14.80;64.70;;;;;;5484905;26;20325;-65
2024/04/16 12:06:56;;;;;;;0.10;0.10;;;15.00;65.80;;;;;;5482133;26;20009;-65
2024/04/16 12:09:22;;;;;;;1.55;0.57;;;15.40;63.90;;;;;;5468634;26;19998;-64
2024/04/16 12:11:48;;;;;;;0.10;0.10;;;15.80;63.40;;;;;;5468522;26;20013;-64
2024/04/16 12:14:13;;;;;;;0.30;0.30;;;16.20;62.60;;;;;;5470434;26;20038;-64
2024/04/16 12:16:40;;;;;;;1.50;0.20;;;16.70;61.90;;;;;;5475031;26;19994;-65
2024/04/16 12:19:06;;;;;;;0.28;0.10;;;17.00;59.40;;;;;;5476832;26;19994;-65
2024/04/16 12:21:32;;;;;;;1.20;0.20;;;17.30;56.50;;;;;;5484459;26;20005;-71
2024/04/16 12:23:58;;;;;;;0.25;0.10;;;17.40;57.10;;;;;;5484248;26;20004;-70
2024/04/16 12:26:23;;;;;;;1.38;0.20;;;17.60;57.40;;;;;;5481982;26;20038;-67
2024/04/16 12:28:50;;;;;;;0.20;0.20;;;17.90;57.30;;;;;;5475402;26;20501;-63
2024/04/16 12:31:16;;;;;;;0.20;0.20;;;17.90;55.10;;;;;;5473285;26;20005;-63
2024/04/16 12:33:42;;;;;;;0.10;0.10;;;17.40;55.30;;;;;;5476141;26;20025;-63
2024/04/16 12:36:09;;;;;;;0.30;0.20;;;16.70;57.10;;;;;;5480111;26;20001;-63
2024/04/16 12:38:35;;;;;;;0.20;0.20;;;16.20;59.40;;;;;;5482670;26;20027;-63
2024/04/16 12:41:01;;;;;;;0.10;0.10;;;15.70;61.20;;;;;;5482054;26;20008;-64
2024/04/16 12:43:27;;;;;;;0.20;0.20;;;15.40;62.50;;;;;;5482226;26;19994;-63
2024/04/16 12:45:58;;;;;;;0.55;0.20;;;15.30;63.80;;;;;;5472241;26;20008;-63
2024/04/16 12:48:26;;;;;;;0.47;0.20;;;15.50;64.00;;;;;;5475151;26;19998;-63
2024/04/16 12:50:52;;;;;;;0.15;0.15;;;15.80;63.50;;;;;;5481914;26;19994;-63